Upper Tygart, Kentucky
Current Conditions -  °F | °C
As of 2:30 PM on Monday 20 Oct 2014 (Local Time) from KSYM Reporting Station
Scattered Clouds Scattered Clouds  
Wind Chill: 59°   Ceiling: Unl
Heat Index: 59°   Visibility: 10mi
Dew Point: 48°   Wind: 15mph
Humidity: 67%   Direction: 230°SW
Pressure: 29.98"   Gusts: 25mph
Location:  38.3543°N, 83.1837°W
Report Text: KSYM 201830Z AUTO 23013G22KT 10SM FEW025 SCT110 15/09 A2998 RMK AO2
Loading
Personal Weather Stations






























Interactive Weather Map
Tropical Storm Tracking
New forecast layout! Learn more

10-Day Weather Forecast

Advertisements
Track Severe Weather on mobile